createdAt,value
2022-11-03T00:00:00.278Z,1013.34
2022-11-03T00:01:02.454Z,1013.30
2022-11-03T00:02:00.977Z,1013.28
2022-11-03T00:03:04.272Z,1013.21
2022-11-03T00:04:01.424Z,1013.20
2022-11-03T00:05:01.716Z,1013.12
2022-11-03T00:06:03.908Z,1013.16
2022-11-03T00:07:02.286Z,1013.11
2022-11-03T00:08:05.520Z,1013.16
2022-11-03T00:09:02.919Z,1013.14
2022-11-03T00:10:03.228Z,1013.14
2022-11-03T00:11:03.526Z,1013.16
2022-11-03T00:12:05.716Z,1013.12
2022-11-03T00:13:05.467Z,1013.08
2022-11-03T00:14:04.428Z,1013.09
2022-11-03T00:15:04.718Z,1013.07
2022-11-03T00:16:05.026Z,1013.05
2022-11-03T00:17:07.213Z,1013.03
2022-11-03T00:18:08.368Z,1012.97
2022-11-03T00:19:05.895Z,1012.97
2022-11-03T00:20:09.043Z,1012.95
2022-11-03T00:21:06.427Z,1012.97
2022-11-03T00:22:09.569Z,1012.97
2022-11-03T00:23:10.277Z,1012.93
2022-11-03T00:24:08.000Z,1012.93
2022-11-03T00:25:08.416Z,1012.91
2022-11-03T00:26:07.795Z,1012.92
2022-11-03T00:27:09.990Z,1012.91
2022-11-03T00:28:09.413Z,1012.90
2022-11-03T00:29:09.575Z,1012.86
2022-11-03T00:30:09.729Z,1012.82
2022-11-03T00:31:10.172Z,1012.81
2022-11-03T00:32:11.409Z,1012.77
2022-11-03T00:33:11.618Z,1012.80
2022-11-03T00:34:11.074Z,1012.75
2022-11-03T00:35:11.297Z,1012.74
2022-11-03T00:36:11.458Z,1012.78
2022-11-03T00:37:12.849Z,1012.74
2022-11-03T00:38:13.028Z,1012.76
2022-11-03T00:39:13.223Z,1012.76
2022-11-03T00:40:12.793Z,1012.74
2022-11-03T00:41:13.146Z,1012.68
2022-11-03T00:42:13.185Z,1012.67
2022-11-03T00:43:14.584Z,1012.65
2022-11-03T00:44:14.779Z,1012.68
2022-11-03T00:45:13.292Z,1012.63
2022-11-03T00:46:13.593Z,1012.61
2022-11-03T00:47:18.893Z,1012.66
2022-11-03T00:48:16.976Z,1012.65
2022-11-03T00:49:16.157Z,1012.58
2022-11-03T00:50:14.782Z,1012.57
2022-11-03T00:51:16.273Z,1012.58
2022-11-03T00:52:15.369Z,1012.58
2022-11-03T00:53:16.553Z,1012.58
2022-11-03T00:54:15.910Z,1012.52
2022-11-03T00:55:16.196Z,1012.44
2022-11-03T00:56:16.514Z,1012.53
2022-11-03T00:57:17.703Z,1012.51
2022-11-03T00:58:17.901Z,1012.51
2022-11-03T00:59:19.575Z,1012.49
2022-11-03T01:00:19.293Z,1012.45
2022-11-03T01:01:20.043Z,1012.48
2022-11-03T01:02:20.311Z,1012.43
2022-11-03T01:03:20.327Z,1012.41
2022-11-03T01:04:20.490Z,1012.39
2022-11-03T01:05:19.109Z,1012.38
2022-11-03T01:06:21.283Z,1012.34
2022-11-03T01:07:21.467Z,1012.36
2022-11-03T01:08:23.752Z,1012.29
2022-11-03T01:09:22.823Z,1012.25
2022-11-03T01:10:22.511Z,1012.27
2022-11-03T01:11:20.961Z,1012.24
2022-11-03T01:12:23.083Z,1012.20
2022-11-03T01:13:23.274Z,1012.24
2022-11-03T01:14:23.595Z,1012.21
2022-11-03T01:15:23.614Z,1012.22
2022-11-03T01:16:22.356Z,1012.22
2022-11-03T01:17:22.669Z,1012.23
2022-11-03T01:18:24.854Z,1012.18
2022-11-03T01:19:25.033Z,1012.17
2022-11-03T01:20:23.535Z,1012.15
2022-11-03T01:21:25.706Z,1012.14
2022-11-03T01:22:26.855Z,1012.14
2022-11-03T01:23:25.091Z,1012.15
2022-11-03T01:24:26.296Z,1012.13
2022-11-03T01:25:26.943Z,1012.06
2022-11-03T01:26:25.315Z,1012.04
2022-11-03T01:27:26.554Z,1012.06
2022-11-03T01:28:27.845Z,1012.08
2022-11-03T01:29:27.513Z,1012.11
2022-11-03T01:30:26.506Z,1012.13
2022-11-03T01:31:27.800Z,1012.18
2022-11-03T01:32:29.042Z,1012.14
2022-11-03T01:33:27.284Z,1012.14
2022-11-03T01:34:29.476Z,1012.11
2022-11-03T01:35:29.636Z,1012.04
2022-11-03T01:36:28.136Z,1012.05
2022-11-03T01:37:29.428Z,1012.03
2022-11-03T01:38:28.776Z,1012.04
2022-11-03T01:39:30.954Z,1012.01
2022-11-03T01:40:29.343Z,1011.99
2022-11-03T01:41:29.632Z,1012.03
2022-11-03T01:42:29.965Z,1011.95
2022-11-03T01:43:32.111Z,1011.99
2022-11-03T01:44:32.313Z,1011.93
2022-11-03T01:45:32.492Z,1011.93
2022-11-03T01:46:31.135Z,1011.94
2022-11-03T01:47:32.888Z,1011.90
2022-11-03T01:48:31.756Z,1011.88
2022-11-03T01:49:32.073Z,1011.88
2022-11-03T01:50:34.273Z,1011.92
2022-11-03T01:51:32.645Z,1011.85
2022-11-03T01:52:34.054Z,1011.92
2022-11-03T01:53:33.225Z,1011.90
2022-11-03T01:54:33.526Z,1011.86
2022-11-03T01:55:35.707Z,1011.84
2022-11-03T01:56:34.082Z,1011.86
2022-11-03T01:57:35.171Z,1011.89
2022-11-03T01:58:34.655Z,1011.78
2022-11-03T01:59:36.850Z,1011.86
2022-11-03T02:00:37.035Z,1011.78
2022-11-03T02:01:36.593Z,1011.76
2022-11-03T02:02:39.187Z,1011.75
2022-11-03T02:03:36.081Z,1011.71
2022-11-03T02:04:38.289Z,1011.73
2022-11-03T02:05:38.475Z,1011.68
2022-11-03T02:06:36.971Z,1011.71
2022-11-03T02:07:38.052Z,1011.68
2022-11-03T02:08:37.547Z,1011.64
2022-11-03T02:09:37.837Z,1011.64
2022-11-03T02:10:40.034Z,1011.68
2022-11-03T02:11:40.214Z,1011.72
2022-11-03T02:12:39.618Z,1011.78
2022-11-03T02:13:38.968Z,1011.78
2022-11-03T02:14:39.263Z,1011.79
2022-11-03T02:15:42.889Z,1011.71
2022-11-03T02:16:41.691Z,1011.73
2022-11-03T02:17:43.428Z,1011.70
2022-11-03T02:18:40.478Z,1011.73
2022-11-03T02:19:40.769Z,1011.72
2022-11-03T02:20:41.069Z,1011.70
2022-11-03T02:21:43.252Z,1011.71
2022-11-03T02:22:44.923Z,1011.57
2022-11-03T02:23:43.659Z,1011.45
2022-11-03T02:24:42.276Z,1011.53
2022-11-03T02:25:43.501Z,1011.61
2022-11-03T02:26:43.649Z,1011.66
2022-11-03T02:27:45.992Z,1011.76
2022-11-03T02:28:43.423Z,1011.68
2022-11-03T02:29:43.702Z,1011.67
2022-11-03T02:30:45.906Z,1011.68
2022-11-03T02:31:46.051Z,1011.70
2022-11-03T02:32:46.893Z,1011.67
2022-11-03T02:33:46.732Z,1011.66
2022-11-03T02:34:46.848Z,1011.59
2022-11-03T02:35:47.431Z,1011.58
2022-11-03T02:36:47.682Z,1011.57
2022-11-03T02:37:47.894Z,1011.49
2022-11-03T02:38:47.119Z,1011.41
2022-11-03T02:39:47.426Z,1011.40
2022-11-03T02:40:46.776Z,1011.38
2022-11-03T02:41:49.893Z,1011.33
2022-11-03T02:42:50.063Z,1011.29
2022-11-03T02:43:49.377Z,1011.26
2022-11-03T02:44:49.515Z,1011.24
2022-11-03T02:45:48.250Z,1011.23
2022-11-03T02:46:50.415Z,1011.13
2022-11-03T02:47:49.756Z,1011.14
2022-11-03T02:48:50.986Z,1011.06
2022-11-03T02:49:51.213Z,1011.09
2022-11-03T02:50:51.374Z,1011.01
2022-11-03T02:51:51.555Z,1011.05
2022-11-03T02:52:52.715Z,1011.01
2022-11-03T02:53:52.445Z,1011.00
2022-11-03T02:54:52.634Z,1010.99
2022-11-03T02:55:52.835Z,1010.94
2022-11-03T02:56:51.504Z,1010.88
2022-11-03T02:57:55.246Z,1010.88
2022-11-03T02:58:53.980Z,1010.86
2022-11-03T02:59:53.174Z,1010.92
2022-11-03T03:00:52.756Z,1010.92
2022-11-03T03:01:53.975Z,1010.95
2022-11-03T03:02:56.565Z,1010.83
2022-11-03T03:03:55.300Z,1010.93
2022-11-03T03:04:55.464Z,1010.88
2022-11-03T03:05:55.664Z,1010.89
2022-11-03T03:06:56.347Z,1010.78
2022-11-03T03:07:57.554Z,1010.89
2022-11-03T03:08:54.954Z,1010.86
2022-11-03T03:09:57.138Z,1010.95
2022-11-03T03:10:57.316Z,1010.86
2022-11-03T03:11:57.483Z,1010.93
2022-11-03T03:12:56.223Z,1010.87
2022-11-03T03:13:58.346Z,1010.90
2022-11-03T03:14:56.594Z,1010.97
2022-11-03T03:15:58.947Z,1010.93
2022-11-03T03:16:57.226Z,1010.88
2022-11-03T03:17:57.578Z,1010.91
2022-11-03T03:18:59.723Z,1010.93
2022-11-03T03:19:58.089Z,1010.89
2022-11-03T03:21:01.729Z,1010.94
2022-11-03T03:22:01.448Z,1010.83
2022-11-03T03:23:01.579Z,1010.89
2022-11-03T03:24:00.827Z,1010.86
2022-11-03T03:24:59.445Z,1010.80
2022-11-03T03:26:01.671Z,1010.84
2022-11-03T03:27:00.048Z,1010.79
2022-11-03T03:28:02.830Z,1010.84
2022-11-03T03:29:00.586Z,1010.82
2022-11-03T03:30:02.788Z,1010.76
2022-11-03T03:31:02.970Z,1010.70
2022-11-03T03:32:01.463Z,1010.70
2022-11-03T03:33:04.956Z,1010.69
2022-11-03T03:34:04.836Z,1010.63
2022-11-03T03:35:02.328Z,1010.67
2022-11-03T03:36:04.507Z,1010.55
2022-11-03T03:37:02.885Z,1010.66
2022-11-03T03:38:06.788Z,1010.78
2022-11-03T03:39:03.496Z,1010.76
2022-11-03T03:40:03.795Z,1010.80
2022-11-03T03:41:10.489Z,1010.82
2022-11-03T03:42:04.360Z,1010.81
2022-11-03T03:43:05.763Z,1010.74
2022-11-03T03:44:04.969Z,1010.70
2022-11-03T03:45:06.122Z,1010.70
2022-11-03T03:46:07.462Z,1010.71
2022-11-03T03:47:05.831Z,1010.68
2022-11-03T03:48:09.145Z,1010.70
2022-11-03T03:49:06.414Z,1010.63
2022-11-03T03:50:06.706Z,1010.65
2022-11-03T03:51:08.893Z,1010.62
2022-11-03T03:52:07.272Z,1010.58
2022-11-03T03:53:10.420Z,1010.59
2022-11-03T03:54:07.823Z,1010.62
2022-11-03T03:55:11.511Z,1010.57
2022-11-03T03:56:08.368Z,1010.60
2022-11-03T03:57:10.543Z,1010.62
2022-11-03T03:58:12.303Z,1010.59
2022-11-03T03:59:09.198Z,1010.57
2022-11-03T04:00:09.501Z,1010.62
2022-11-03T04:01:10.841Z,1010.60
2022-11-03T04:02:12.005Z,1010.51
2022-11-03T04:03:12.147Z,1010.56
2022-11-03T04:04:10.643Z,1010.53
2022-11-03T04:05:10.949Z,1010.58
2022-11-03T04:06:13.150Z,1010.68
2022-11-03T04:07:11.523Z,1010.64
2022-11-03T04:08:13.712Z,1010.58
2022-11-03T04:09:12.091Z,1010.55
2022-11-03T04:10:12.394Z,1010.57
2022-11-03T04:11:12.697Z,1010.54
2022-11-03T04:12:14.882Z,1010.55
2022-11-03T04:13:15.083Z,1010.50
2022-11-03T04:14:13.587Z,1010.45
2022-11-03T04:15:13.881Z,1010.39
2022-11-03T04:16:17.064Z,1010.50
2022-11-03T04:17:16.297Z,1010.48
2022-11-03T04:18:17.433Z,1010.44
2022-11-03T04:19:17.627Z,1010.44
2022-11-03T04:20:16.323Z,1010.42
2022-11-03T04:21:18.133Z,1010.49
2022-11-03T04:22:17.896Z,1010.55
2022-11-03T04:23:18.067Z,1010.47
2022-11-03T04:24:17.477Z,1010.51
2022-11-03T04:25:18.740Z,1010.53
2022-11-03T04:26:17.136Z,1010.53
2022-11-03T04:27:19.317Z,1010.53
2022-11-03T04:28:18.689Z,1010.56
2022-11-03T04:29:18.025Z,1010.51
2022-11-03T04:30:18.337Z,1010.45
2022-11-03T04:31:18.614Z,1010.48
2022-11-03T04:32:20.814Z,1010.43
2022-11-03T04:33:19.207Z,1010.41
2022-11-03T04:34:21.377Z,1010.40
2022-11-03T04:35:20.776Z,1010.50
2022-11-03T04:36:20.931Z,1010.44
2022-11-03T04:37:21.090Z,1010.44
2022-11-03T04:38:21.507Z,1010.49
2022-11-03T04:39:22.752Z,1010.49
2022-11-03T04:40:22.069Z,1010.48
2022-11-03T04:41:22.383Z,1010.48
2022-11-03T04:42:22.415Z,1010.42
2022-11-03T04:43:23.783Z,1010.43
2022-11-03T04:44:22.166Z,1010.41
2022-11-03T04:45:24.343Z,1010.45
2022-11-03T04:46:23.712Z,1010.45
2022-11-03T04:47:23.023Z,1010.46
2022-11-03T04:48:25.136Z,1010.42
2022-11-03T04:49:25.318Z,1010.33
2022-11-03T04:50:23.806Z,1010.35
2022-11-03T04:51:24.103Z,1010.37
2022-11-03T04:52:24.454Z,1010.38
2022-11-03T04:53:26.594Z,1010.34
2022-11-03T04:54:25.019Z,1010.29
2022-11-03T04:55:26.164Z,1010.32
2022-11-03T04:56:25.533Z,1010.34
2022-11-03T04:57:26.849Z,1010.33
2022-11-03T04:58:29.516Z,1010.29
2022-11-03T04:59:28.189Z,1010.24
2022-11-03T05:00:26.690Z,1010.22
2022-11-03T05:01:27.132Z,1010.26
2022-11-03T05:02:28.231Z,1010.31
2022-11-03T05:03:29.475Z,1010.24
2022-11-03T05:04:29.663Z,1010.21
2022-11-03T05:05:29.851Z,1010.16
2022-11-03T05:06:30.115Z,1010.16
2022-11-03T05:07:28.776Z,1010.19
2022-11-03T05:08:30.916Z,1010.18
2022-11-03T05:09:31.083Z,1010.16
2022-11-03T05:10:31.269Z,1010.15
2022-11-03T05:11:31.440Z,1010.17
2022-11-03T05:12:33.620Z,1010.19
2022-11-03T05:13:30.405Z,1010.10
2022-11-03T05:14:32.593Z,1010.11
2022-11-03T05:15:30.974Z,1010.09
2022-11-03T05:16:33.133Z,1009.92
2022-11-03T05:17:33.516Z,1010.11
2022-11-03T05:18:31.775Z,1010.06
2022-11-03T05:19:33.958Z,1009.99
2022-11-03T05:20:36.275Z,1009.96
2022-11-03T05:21:34.291Z,1009.99
2022-11-03T05:22:35.462Z,1010.07
2022-11-03T05:23:33.212Z,1009.98
2022-11-03T05:24:33.514Z,1009.89
2022-11-03T05:25:33.800Z,1009.93
2022-11-03T05:26:35.988Z,1009.97
2022-11-03T05:27:35.235Z,1009.99
2022-11-03T05:28:34.589Z,1009.89
2022-11-03T05:29:34.883Z,1009.98
2022-11-03T05:30:35.177Z,1009.95
2022-11-03T05:31:35.480Z,1009.90
2022-11-03T05:32:38.624Z,1009.88
2022-11-03T05:33:36.031Z,1009.90
2022-11-03T05:34:36.333Z,1009.90
2022-11-03T05:35:36.669Z,1009.89
2022-11-03T05:36:38.325Z,1009.83
2022-11-03T05:37:38.113Z,1009.80
2022-11-03T05:38:37.664Z,1009.82
2022-11-03T05:39:37.954Z,1009.78
2022-11-03T05:40:38.264Z,1009.71
2022-11-03T05:41:40.461Z,1009.71
2022-11-03T05:42:41.745Z,1009.69
2022-11-03T05:43:39.134Z,1009.70
2022-11-03T05:44:41.325Z,1009.62
2022-11-03T05:45:39.693Z,1009.61
2022-11-03T05:46:41.867Z,1009.62
2022-11-03T05:47:42.772Z,1009.63
2022-11-03T05:48:40.536Z,1009.55
2022-11-03T05:49:42.718Z,1009.54
2022-11-03T05:50:41.092Z,1009.53
2022-11-03T05:51:43.266Z,1009.57
2022-11-03T05:52:41.672Z,1009.56
2022-11-03T05:53:41.867Z,1009.60
2022-11-03T05:54:44.049Z,1009.58
2022-11-03T05:55:44.229Z,1009.51
2022-11-03T05:56:42.726Z,1009.49
2022-11-03T05:57:44.005Z,1009.52
2022-11-03T05:58:43.452Z,1009.49
2022-11-03T05:59:46.997Z,1009.53
2022-11-03T06:00:48.335Z,1009.52
2022-11-03T06:01:44.314Z,1009.52
2022-11-03T06:02:44.582Z,1009.55
2022-11-03T06:03:45.604Z,1009.51
2022-11-03T06:04:46.958Z,1009.46
2022-11-03T06:05:45.198Z,1009.54
2022-11-03T06:06:47.389Z,1009.45
2022-11-03T06:07:45.763Z,1009.46
2022-11-03T06:08:47.049Z,1009.49
2022-11-03T06:09:48.287Z,1009.52
2022-11-03T06:10:46.668Z,1009.50
2022-11-03T06:11:47.977Z,1009.56
2022-11-03T06:12:47.224Z,1009.60
2022-11-03T06:13:47.599Z,1009.62
2022-11-03T06:14:49.761Z,1009.68
2022-11-03T06:15:48.021Z,1009.63
2022-11-03T06:16:48.335Z,1009.59
2022-11-03T06:17:48.643Z,1009.66
2022-11-03T06:18:49.795Z,1009.53
2022-11-03T06:19:49.296Z,1009.59
2022-11-03T06:20:52.933Z,1009.57
2022-11-03T06:21:52.297Z,1009.56
2022-11-03T06:22:50.186Z,1009.51
2022-11-03T06:23:53.329Z,1009.53
2022-11-03T06:24:51.520Z,1009.59
2022-11-03T06:25:53.855Z,1009.60
2022-11-03T06:26:52.098Z,1009.59
2022-11-03T06:27:52.517Z,1009.54
2022-11-03T06:28:55.253Z,1009.59
2022-11-03T06:29:53.132Z,1009.58
2022-11-03T06:30:53.461Z,1009.58
2022-11-03T06:31:53.674Z,1009.48
2022-11-03T06:32:53.178Z,1009.46
2022-11-03T06:33:55.530Z,1009.49
2022-11-03T06:34:53.811Z,1009.43
2022-11-03T06:35:55.075Z,1009.43
2022-11-03T06:36:55.414Z,1009.40
2022-11-03T06:37:56.644Z,1009.42
2022-11-03T06:38:57.584Z,1009.40
2022-11-03T06:39:56.239Z,1009.39
2022-11-03T06:40:56.566Z,1009.35
2022-11-03T06:41:56.904Z,1009.32
2022-11-03T06:42:57.219Z,1009.43
2022-11-03T06:43:59.453Z,1009.36
2022-11-03T06:44:56.872Z,1009.39
2022-11-03T06:45:57.191Z,1009.38
2022-11-03T06:46:57.525Z,1009.39
2022-11-03T06:47:58.704Z,1009.40
2022-11-03T06:48:59.089Z,1009.49
2022-11-03T06:50:00.297Z,1009.39
2022-11-03T06:51:00.569Z,1009.33
2022-11-03T06:51:58.853Z,1009.37
2022-11-03T06:53:01.043Z,1009.37
2022-11-03T06:54:01.255Z,1009.45
2022-11-03T06:55:01.387Z,1009.39
2022-11-03T06:56:02.564Z,1009.40
2022-11-03T06:57:02.292Z,1009.41
2022-11-03T06:58:03.945Z,1009.46
2022-11-03T06:59:02.684Z,1009.42
2022-11-03T07:00:20.275Z,1009.44
2022-11-03T07:01:04.138Z,1009.40
2022-11-03T07:02:01.879Z,1009.36
2022-11-03T07:03:02.124Z,1009.38
2022-11-03T07:04:04.302Z,1009.38
2022-11-03T07:05:02.582Z,1009.33
2022-11-03T07:06:03.293Z,1009.32
2022-11-03T07:07:03.188Z,1009.32
2022-11-03T07:08:03.525Z,1009.32
2022-11-03T07:09:05.712Z,1009.30
2022-11-03T07:10:04.125Z,1009.39
2022-11-03T07:11:05.439Z,1009.33
2022-11-03T07:12:04.712Z,1009.34
2022-11-03T07:13:07.499Z,1009.33
2022-11-03T07:14:07.110Z,1009.38
2022-11-03T07:16:07.330Z,1009.26
2022-11-03T07:17:06.102Z,1009.30
2022-11-03T07:18:08.622Z,1009.32
2022-11-03T07:19:08.475Z,1009.32
2022-11-03T07:20:07.024Z,1009.33
2022-11-03T07:21:09.277Z,1009.33
2022-11-03T07:22:09.517Z,1009.27
2022-11-03T07:23:07.799Z,1009.32
2022-11-03T07:24:09.985Z,1009.27
2022-11-03T07:25:08.397Z,1009.28
2022-11-03T07:26:10.700Z,1009.29
2022-11-03T07:27:08.993Z,1009.22
2022-11-03T07:28:09.494Z,1009.21
2022-11-03T07:29:11.511Z,1009.16
2022-11-03T07:30:11.693Z,1009.15
2022-11-03T07:31:16.306Z,1009.11
2022-11-03T07:32:10.496Z,1009.14
2022-11-03T07:33:12.741Z,1009.13
2022-11-03T07:34:12.039Z,1009.12
2022-11-03T07:35:13.294Z,1009.08
2022-11-03T07:36:16.671Z,1009.13
2022-11-03T07:38:12.553Z,1009.16
2022-11-03T07:39:14.500Z,1009.20
2022-11-03T07:40:12.906Z,1009.24
2022-11-03T07:41:15.109Z,1009.20
2022-11-03T07:42:13.397Z,1009.19
2022-11-03T07:43:13.741Z,1009.20
2022-11-03T07:44:15.924Z,1009.16
2022-11-03T07:45:14.335Z,1009.17
2022-11-03T07:46:18.004Z,1009.21
2022-11-03T07:47:14.949Z,1009.15
2022-11-03T07:48:15.159Z,1009.09
2022-11-03T07:49:17.342Z,1009.09
2022-11-03T07:50:17.540Z,1009.11
2022-11-03T07:51:17.067Z,1009.18
2022-11-03T07:52:16.351Z,1009.11
2022-11-03T07:53:22.033Z,1009.12
2022-11-03T07:54:17.965Z,1009.10
2022-11-03T07:55:17.233Z,1009.12
2022-11-03T07:56:20.988Z,1009.18
2022-11-03T07:57:17.802Z,1009.14
2022-11-03T07:58:18.142Z,1009.14
2022-11-03T07:59:18.429Z,1009.11
2022-11-03T08:00:18.631Z,1009.15
2022-11-03T08:01:22.328Z,1009.19
2022-11-03T08:02:19.273Z,1009.16
2022-11-03T08:03:19.485Z,1009.12
2022-11-03T08:04:22.626Z,1009.14
2022-11-03T08:06:23.226Z,1009.07
2022-11-03T08:07:22.460Z,1009.05
2022-11-03T08:08:20.877Z,1009.04
2022-11-03T08:09:23.061Z,1009.01
2022-11-03T08:10:21.527Z,1009.02
2022-11-03T08:11:27.876Z,1008.97
2022-11-03T08:12:24.919Z,1009.01
2022-11-03T08:13:22.340Z,1008.98
2022-11-03T08:14:22.681Z,1008.99
2022-11-03T08:15:24.870Z,1009.03
2022-11-03T08:16:24.129Z,1008.99
2022-11-03T08:17:25.503Z,1008.99
2022-11-03T08:18:25.707Z,1008.96
2022-11-03T08:19:25.124Z,1008.90
2022-11-03T08:20:27.254Z,1008.93
2022-11-03T08:21:26.635Z,1008.92
2022-11-03T08:22:25.875Z,1008.86
2022-11-03T08:23:26.713Z,1008.88
2022-11-03T08:24:27.454Z,1008.94
2022-11-03T08:25:27.618Z,1008.94
2022-11-03T08:26:27.013Z,1008.99
2022-11-03T08:27:27.390Z,1008.96
2022-11-03T08:28:27.586Z,1008.98
2022-11-03T08:29:29.292Z,1008.97
2022-11-03T08:30:27.227Z,1009.01
2022-11-03T08:31:29.416Z,1009.09
2022-11-03T08:32:29.637Z,1009.06
2022-11-03T08:34:30.223Z,1008.91
2022-11-03T08:35:33.187Z,1008.88
2022-11-03T08:36:30.916Z,1008.92
2022-11-03T08:37:29.212Z,1008.93
2022-11-03T08:38:31.425Z,1008.78
2022-11-03T08:39:29.720Z,1008.84
2022-11-03T08:40:30.905Z,1008.76
2022-11-03T08:41:33.050Z,1008.78
2022-11-03T08:42:31.287Z,1008.70
2022-11-03T08:43:32.463Z,1008.72
2022-11-03T08:44:32.663Z,1008.70
2022-11-03T08:45:31.452Z,1008.63
2022-11-03T08:46:34.715Z,1008.55
2022-11-03T08:47:33.888Z,1008.59
2022-11-03T08:48:32.312Z,1008.53
2022-11-03T08:49:32.556Z,1008.51
2022-11-03T08:50:32.849Z,1008.41
2022-11-03T08:51:36.940Z,1008.41
2022-11-03T08:52:35.217Z,1008.34
2022-11-03T08:53:34.403Z,1008.35
2022-11-03T08:54:33.974Z,1008.31
2022-11-03T08:55:36.109Z,1008.30
2022-11-03T08:56:34.426Z,1008.26
2022-11-03T08:57:36.610Z,1008.32
2022-11-03T08:58:36.788Z,1008.25
2022-11-03T08:59:36.965Z,1008.31
2022-11-03T09:00:41.018Z,1008.27
2022-11-03T09:01:37.414Z,1008.33
2022-11-03T09:02:38.064Z,1008.36
2022-11-03T09:03:36.388Z,1008.33
2022-11-03T09:04:38.520Z,1008.25
2022-11-03T09:05:38.700Z,1008.30
2022-11-03T09:06:38.892Z,1008.29
2022-11-03T09:10:42.374Z,1008.25
2022-11-03T09:11:40.529Z,1008.29
2022-11-03T09:12:40.697Z,1008.29
2022-11-03T09:13:39.254Z,1008.32
2022-11-03T09:14:41.433Z,1008.31
2022-11-03T09:15:39.736Z,1008.32
2022-11-03T09:16:41.899Z,1008.28
2022-11-03T09:17:44.771Z,1008.19
2022-11-03T09:18:40.514Z,1008.20
2022-11-03T09:19:40.740Z,1008.22
2022-11-03T09:20:42.947Z,1008.09
2022-11-03T09:21:43.113Z,1008.10
2022-11-03T09:22:43.299Z,1008.10
2022-11-03T09:23:43.473Z,1008.10
2022-11-03T09:24:43.677Z,1008.03
2022-11-03T09:25:44.443Z,1008.07
2022-11-03T09:26:42.734Z,1008.06
2022-11-03T09:27:44.921Z,1008.03
2022-11-03T09:28:45.120Z,1008.10
2022-11-03T09:30:11.145Z,1008.03
2022-11-03T09:30:44.782Z,1008.00
2022-11-03T09:31:44.063Z,1007.98
2022-11-03T09:32:44.304Z,1008.00
2022-11-03T09:33:46.493Z,1008.05
2022-11-03T09:34:44.789Z,1008.03
2022-11-03T09:35:45.040Z,1007.97
2022-11-03T09:36:52.929Z,1008.02
2022-11-03T09:37:48.432Z,1008.01
2022-11-03T09:38:47.612Z,1007.99
2022-11-03T09:39:46.154Z,1008.02
2022-11-03T09:41:58.044Z,1007.95
2022-11-03T09:42:47.918Z,1007.95
2022-11-03T09:43:49.099Z,1008.00
2022-11-03T09:44:47.524Z,1008.00
2022-11-03T09:45:48.609Z,1008.02
2022-11-03T09:46:53.759Z,1008.00
2022-11-03T09:47:49.272Z,1008.03
2022-11-03T09:48:48.983Z,1007.94
2022-11-03T09:49:49.765Z,1007.94
2022-11-03T09:50:52.080Z,1007.91
2022-11-03T09:51:50.514Z,1007.97
2022-11-03T09:52:51.741Z,1007.97
2022-11-03T09:53:50.355Z,1008.00
2022-11-03T09:54:52.319Z,1007.92
2022-11-03T09:55:53.457Z,1007.98
2022-11-03T09:56:51.026Z,1007.97
2022-11-03T09:57:51.247Z,1007.88
2022-11-03T09:58:54.432Z,1007.94
2022-11-03T09:59:51.895Z,1007.91
2022-11-03T10:00:55.717Z,1007.89
2022-11-03T10:01:53.499Z,1007.89
2022-11-03T10:02:52.626Z,1007.85
2022-11-03T10:03:52.845Z,1007.77
2022-11-03T10:04:53.259Z,1007.79
2022-11-03T10:05:54.953Z,1007.83
2022-11-03T10:06:53.738Z,1007.82
2022-11-03T10:08:54.231Z,1007.71
2022-11-03T10:09:54.452Z,1007.73
2022-11-03T10:10:56.684Z,1007.70
2022-11-03T10:11:56.835Z,1007.75
2022-11-03T10:12:55.381Z,1007.73
2022-11-03T10:13:57.565Z,1007.72
2022-11-03T10:14:55.884Z,1007.75
2022-11-03T10:15:59.532Z,1007.79
2022-11-03T10:16:56.340Z,1007.73
2022-11-03T10:17:56.562Z,1007.76
2022-11-03T10:18:56.796Z,1007.74
2022-11-03T10:19:58.971Z,1007.71
2022-11-03T10:20:58.302Z,1007.70
2022-11-03T10:21:59.471Z,1007.72
2022-11-03T10:22:59.659Z,1007.57
2022-11-03T10:23:59.036Z,1007.62
2022-11-03T10:25:00.402Z,1007.58
2022-11-03T10:25:58.742Z,1007.55
2022-11-03T10:27:00.893Z,1007.60
2022-11-03T10:28:00.190Z,1007.58
2022-11-03T10:29:01.552Z,1007.63
2022-11-03T10:30:01.736Z,1007.56
2022-11-03T10:31:16.526Z,1007.54
2022-11-03T10:32:01.424Z,1007.59
2022-11-03T10:33:01.509Z,1007.53
2022-11-03T10:34:01.918Z,1007.50
2022-11-03T10:35:01.326Z,1007.62
2022-11-03T10:36:04.965Z,1007.47
2022-11-03T10:37:02.653Z,1007.48
2022-11-03T10:38:02.054Z,1007.44
2022-11-03T10:39:02.405Z,1007.45
2022-11-03T10:40:02.649Z,1007.39
2022-11-03T10:41:05.803Z,1007.45
2022-11-03T10:42:03.966Z,1007.43
2022-11-03T10:43:04.707Z,1007.34
2022-11-03T10:44:04.557Z,1007.37
2022-11-03T10:45:07.348Z,1007.28
2022-11-03T10:46:08.097Z,1007.34
2022-11-03T10:47:05.501Z,1007.31
2022-11-03T10:48:05.695Z,1007.37
2022-11-03T10:50:07.300Z,1007.39
2022-11-03T10:51:06.708Z,1007.39
2022-11-03T10:52:05.982Z,1007.38
2022-11-03T10:53:06.585Z,1007.35
2022-11-03T10:54:06.485Z,1007.39
2022-11-03T10:55:07.674Z,1007.32
2022-11-03T10:56:07.744Z,1007.29
2022-11-03T10:57:09.320Z,1007.34
2022-11-03T10:58:09.812Z,1007.25
2022-11-03T10:59:09.672Z,1007.32
2022-11-03T11:00:09.834Z,1007.26
2022-11-03T11:01:10.386Z,1007.18
2022-11-03T11:02:10.306Z,1007.24
2022-11-03T11:03:14.971Z,1007.24
2022-11-03T11:04:11.376Z,1007.20
2022-11-03T11:05:09.639Z,1007.22
2022-11-03T11:06:11.117Z,1007.15
2022-11-03T11:07:14.083Z,1007.11
2022-11-03T11:08:12.351Z,1007.13
2022-11-03T11:09:10.678Z,1007.14
2022-11-03T11:10:10.911Z,1007.17
2022-11-03T11:11:13.118Z,1007.20
2022-11-03T11:12:13.375Z,1007.16
2022-11-03T11:13:13.510Z,1007.15
2022-11-03T11:14:13.711Z,1007.08
2022-11-03T11:15:13.893Z,1007.06
2022-11-03T11:16:14.570Z,1007.02
2022-11-03T11:17:16.235Z,1007.04
2022-11-03T11:18:14.992Z,1006.92
2022-11-03T11:19:15.482Z,1006.99
2022-11-03T11:20:13.754Z,1006.98
2022-11-03T11:21:17.445Z,1006.97
2022-11-03T11:22:17.116Z,1006.88
2022-11-03T11:23:14.539Z,1006.92
2022-11-03T11:24:14.774Z,1006.89
2022-11-03T11:25:16.984Z,1006.82
2022-11-03T11:26:17.146Z,1006.75
2022-11-03T11:27:15.611Z,1006.79
2022-11-03T11:28:17.783Z,1006.73
2022-11-03T11:29:17.967Z,1006.77
2022-11-03T11:30:18.150Z,1006.75
2022-11-03T11:31:18.321Z,1006.82
2022-11-03T11:32:19.486Z,1006.71
2022-11-03T11:33:19.223Z,1006.70
2022-11-03T11:34:17.572Z,1006.68
2022-11-03T11:35:19.708Z,1006.68
2022-11-03T11:36:18.191Z,1006.70
2022-11-03T11:37:19.278Z,1006.70
2022-11-03T11:38:18.574Z,1006.67
2022-11-03T11:39:20.733Z,1006.63
2022-11-03T11:40:20.928Z,1006.68
2022-11-03T11:41:20.459Z,1006.60
2022-11-03T11:42:21.148Z,1006.68
2022-11-03T11:43:19.953Z,1006.61
2022-11-03T11:44:22.147Z,1006.60
2022-11-03T11:45:20.562Z,1006.57
2022-11-03T11:46:20.811Z,1006.65
2022-11-03T11:47:23.953Z,1006.54
2022-11-03T11:48:23.189Z,1006.56
2022-11-03T11:49:21.619Z,1006.53
2022-11-03T11:50:23.807Z,1006.56
2022-11-03T11:51:22.123Z,1006.56
2022-11-03T11:52:23.374Z,1006.52
2022-11-03T11:53:27.453Z,1006.51
2022-11-03T11:54:23.890Z,1006.51
2022-11-03T11:55:25.068Z,1006.48
2022-11-03T11:56:23.423Z,1006.48
2022-11-03T11:57:25.730Z,1006.45
2022-11-03T11:58:23.897Z,1006.44
2022-11-03T11:59:26.403Z,1006.33
2022-11-03T12:00:24.424Z,1006.36
2022-11-03T12:01:26.705Z,1006.38
2022-11-03T12:02:27.038Z,1006.39
2022-11-03T12:03:27.001Z,1006.39
2022-11-03T12:04:26.691Z,1006.36
2022-11-03T12:05:25.960Z,1006.36
2022-11-03T12:06:26.189Z,1006.31
2022-11-03T12:07:28.370Z,1006.30
2022-11-03T12:08:26.672Z,1006.38
2022-11-03T12:09:26.890Z,1006.26
2022-11-03T12:10:27.119Z,1006.26
2022-11-03T12:11:28.383Z,1006.25
2022-11-03T12:12:29.574Z,1006.26
2022-11-03T12:13:27.960Z,1006.26
2022-11-03T12:14:28.194Z,1006.19
2022-11-03T12:15:28.423Z,1006.21
2022-11-03T12:16:28.655Z,1006.11
2022-11-03T12:17:30.830Z,1006.15
2022-11-03T12:18:29.127Z,1006.12